Time;durP1;ratioP1;P1;durP2;ratioP2;P2;SDS_P1;SDS_P2;PMS_P1;PMS_P2;Temp;Humidity;BMP_temperature;BMP_pressure;BME280_temperature;BME280_humidity;BME280_pressure;Samples;Min_cycle;Max_cycle;Signal;HPM_P1;HPM_P2
2021/01/20 00:02:19;;;;;;;19.30;7.18;;;;;;;;;;5072187;28;20043;-63
2021/01/20 00:04:45;;;;;;;15.35;7.65;;;;;;;;;;5071847;28;20070;-64
2021/01/20 00:07:11;;;;;;;16.90;7.38;;;;;;;;;;5072006;28;20385;-64
2021/01/20 00:09:40;;;;;;;12.93;7.60;;;10.60;61.80;;;;;;5071344;28;20035;-64
2021/01/20 00:12:06;;;;;;;16.88;6.68;;;;;;;;;;5071794;28;20016;-64
2021/01/20 00:14:32;;;;;;;18.20;7.15;;;;;;;;;;5072060;28;20033;-63
2021/01/20 00:16:59;;;;;;;13.18;7.28;;;;;;;;;;5071730;28;20028;-64
2021/01/20 00:19:25;;;;;;;16.90;7.18;;;;;;;;;;5053338;28;20072;-66
2021/01/20 00:21:52;;;;;;;11.60;5.82;;;;;;;;;;5071652;28;20028;-65
2021/01/20 00:24:18;;;;;;;11.93;6.20;;;;;;;;;;5053326;28;20044;-65
2021/01/20 00:26:44;;;;;;;11.82;5.32;;;;;;;;;;5071624;28;20039;-63
2021/01/20 00:29:11;;;;;;;11.85;6.22;;;;;;;;;;5071874;28;20072;-65
2021/01/20 00:31:37;;;;;;;13.18;6.38;;;;;;;;;;5071547;28;20104;-63
2021/01/20 00:34:03;;;;;;;11.38;5.45;;;;;;;;;;5087536;28;20078;-64
2021/01/20 00:36:30;;;;;;;15.38;6.03;;;;;;;;;;5071672;28;20051;-63
2021/01/20 00:38:56;;;;;;;18.70;6.82;;;;;;;;;;5070982;28;20044;-64
2021/01/20 00:41:22;;;;;;;13.93;6.72;;;;;;;;;;5071518;28;20044;-65
2021/01/20 00:43:49;;;;;;;13.10;5.60;;;;;;;;;;5071451;28;20035;-62
2021/01/20 00:46:15;;;;;;;12.50;6.68;;;;;;;;;;5071944;28;20476;-64
2021/01/20 00:48:41;;;;;;;13.45;6.22;;;;;;;;;;5071522;28;20021;-66
2021/01/20 00:51:08;;;;;;;11.30;6.07;;;;;;;;;;5071426;28;20028;-65
2021/01/20 00:53:34;;;;;;;13.18;6.20;;;10.40;60.90;;;;;;5086440;28;20439;-65
2021/01/20 00:56:01;;;;;;;13.30;6.05;;;;;;;;;;5071248;28;20055;-65
2021/01/20 00:58:27;;;;;;;12.75;5.85;;;;;;;;;;5056131;28;20040;-65
2021/01/20 01:00:54;;;;;;;15.65;5.72;;;;;;;;;;5057724;28;20078;-65
2021/01/20 01:03:20;;;;;;;16.08;6.43;;;;;;;;;;5057229;28;20079;-66
2021/01/20 01:05:46;;;;;;;10.05;5.88;;;;;;;;;;5075515;28;20040;-65
2021/01/20 01:08:13;;;;;;;14.20;6.30;;;;;;;;;;5056862;28;20029;-64
2021/01/20 01:10:44;;;;;;;13.88;6.32;;;;;;;;;;5057483;28;20059;-64
2021/01/20 01:13:14;;;;;;;13.40;5.95;;;;;;;;;;5057424;28;20040;-64
2021/01/20 01:15:49;;;;;;;13.90;6.75;;;;;;;;;;5056881;28;20059;-64
2021/01/20 01:18:18;;;;;;;8.65;5.38;;;;;;;;;;5057114;28;20032;-63
2021/01/20 01:20:44;;;;;;;14.45;6.70;;;;;;;;;;5090723;28;20036;-64
2021/01/20 01:23:10;;;;;;;15.52;6.28;;;;;;;;;;5056713;28;20023;-63
2021/01/20 01:25:37;;;;;;;12.07;6.25;;;10.90;59.40;;;;;;5056868;28;20079;-65
2021/01/20 01:28:13;;;;;;;17.80;6.70;;;10.70;60.10;;;;;;5074641;28;20028;-63
2021/01/20 01:30:52;;;;;;;18.15;5.82;;;;;;;;;;5057244;28;20056;-64
2021/01/20 01:33:18;;;;;;;17.05;6.10;;;;;;;;;;5074785;28;20032;-63
2021/01/20 01:35:45;;;;;;;13.60;6.07;;;;;;;;;;5074226;28;20404;-64
2021/01/20 01:38:11;;;;;;;12.07;5.90;;;;;;;;;;5056536;28;20052;-64
2021/01/20 01:40:42;;;;;;;13.25;6.00;;;;;;;;;;5056980;28;20028;-64
2021/01/20 01:43:17;;;;;;;12.90;6.10;;;;;;;;;;5056548;28;20048;-64
2021/01/20 01:45:58;;;;;;;14.27;5.43;;;;;;;;;;5056805;28;20025;-64
2021/01/20 01:48:24;;;;;;;11.80;6.30;;;;;;;;;;5056723;28;20029;-64
2021/01/20 01:50:50;;;;;;;14.93;5.97;;;;;;;;;;5073829;28;20101;-63
2021/01/20 01:53:17;;;;;;;12.30;5.60;;;;;;;;;;5056875;28;20045;-64
2021/01/20 01:56:15;;;;;;;15.23;6.35;;;;;;;;;;5032349;28;20111;-64
2021/01/20 01:58:51;;;;;;;12.00;6.25;;;11.00;59.80;;;;;;5015853;28;20037;-62
2021/01/20 02:01:20;;;;;;;13.57;6.05;;;;;;;;;;5015753;28;20037;-64
2021/01/20 02:03:54;;;;;;;15.05;6.43;;;;;;;;;;5013029;28;21903;-64
2021/01/20 02:06:24;;;;;;;13.38;7.55;;;;;;;;;;5015396;28;20041;-63
2021/01/20 02:09:00;;;;;;;14.70;5.88;;;;;;;;;;5015670;28;20037;-65
2021/01/20 02:11:40;;;;;;;15.60;6.18;;;11.00;60.00;;;;;;5032266;28;20544;-65
2021/01/20 02:14:24;;;;;;;17.95;7.35;;;11.30;59.50;;;;;;5015458;28;20042;-65
2021/01/20 02:17:53;;;;;;;11.73;5.85;;;11.40;58.90;;;;;;4973295;28;20031;-65
2021/01/20 02:21:05;;;;;;;15.73;6.53;;;11.30;59.10;;;;;;4956669;28;20072;-65
2021/01/20 02:23:32;;;;;;;18.45;6.15;;;;;;;;;;4957000;28;20030;-65
2021/01/20 02:26:36;;;;;;;11.73;5.70;;;11.10;60.10;;;;;;4973070;28;20133;-65
2021/01/20 02:29:24;;;;;;;14.50;6.25;;;11.10;60.40;;;;;;4934383;29;20146;-65
2021/01/20 02:32:01;;;;;;;14.43;6.07;;;11.30;60.10;;;;;;4949262;28;20054;-64
2021/01/20 02:34:28;;;;;;;12.18;5.88;;;11.00;61.60;;;;;;4972540;28;20050;-66
2021/01/20 02:36:55;;;;;;;9.65;5.75;;;10.80;62.30;;;;;;4972560;28;20542;-65
2021/01/20 02:39:40;;;;;;;15.73;5.95;;;10.90;62.80;;;;;;4956628;28;20114;-64
2021/01/20 02:42:23;;;;;;;12.93;5.55;;;;;;;;;;4972619;28;20130;-65
2021/01/20 02:44:56;;;;;;;15.02;6.30;;;;;;;;;;4956543;28;20046;-64
2021/01/20 02:47:41;;;;;;;13.50;6.32;;;;;;;;;;4959773;28;20034;-65
2021/01/20 02:50:12;;;;;;;14.02;6.25;;;10.60;63.50;;;;;;4956257;28;20407;-66
2021/01/20 02:52:58;;;;;;;11.20;5.60;;;10.80;63.00;;;;;;4991880;28;20049;-65
2021/01/20 02:55:53;;;;;;;12.68;5.55;;;10.80;62.80;;;;;;4991986;28;20486;-66
2021/01/20 02:58:52;;;;;;;10.70;5.78;;;;;;;;;;4952988;29;20062;-66
2021/01/20 03:01:36;;;;;;;12.10;5.68;;;10.70;62.70;;;;;;4953197;29;20043;-66
2021/01/20 03:04:03;;;;;;;11.82;5.95;;;10.70;62.10;;;;;;4952628;29;20066;-65
2021/01/20 03:06:29;;;;;;;;;;;10.70;62.50;;;;;;4999320;28;20042;-64
2021/01/20 03:08:56;;;;;;;13.88;5.40;;;11.00;61.10;;;;;;5017379;28;19964;-65
2021/01/20 03:11:22;;;;;;;13.52;5.65;;;;;;;;;;5003391;28;20033;-63
2021/01/20 03:13:49;;;;;;;10.75;5.22;;;;;;;;;;5019846;28;20034;-64
2021/01/20 03:16:23;;;;;;;15.02;5.85;;;10.90;60.60;;;;;;5024570;28;20053;-63
2021/01/20 03:18:49;;;;;;;13.23;5.50;;;;;;;;;;5020911;28;20041;-66
2021/01/20 03:21:15;;;;;;;11.07;5.18;;;;;;;;;;5016149;28;20133;-66
2021/01/20 03:23:42;;;;;;;20.92;5.38;;;;;;;;;;5022521;28;20457;-66
2021/01/20 03:26:08;;;;;;;11.70;4.80;;;;;;;;;;5024658;28;20518;-63
2021/01/20 03:28:34;;;;;;;11.80;4.78;;;;;;;;;;5017383;28;20060;-63
2021/01/20 03:31:01;;;;;;;11.23;5.47;;;;;;;;;;5018175;28;20160;-64
2021/01/20 03:33:27;;;;;;;12.55;5.07;;;;;;;;;;5028428;28;20037;-64
2021/01/20 03:35:53;;;;;;;10.48;5.25;;;;;;;;;;5063298;28;20043;-64
2021/01/20 03:38:19;;;;;;;11.40;4.82;;;;;;;;;;5072528;28;20072;-64
2021/01/20 03:40:46;;;;;;;9.30;4.72;;;;;;;;;;5072403;28;20032;-64
2021/01/20 03:43:12;;;;;;;11.13;5.25;;;;;;;;;;5072107;28;20040;-64
2021/01/20 03:45:38;;;;;;;9.10;5.30;;;;;;;;;;5072330;28;21017;-64
2021/01/20 03:48:04;;;;;;;10.23;5.30;;;;;;;;;;5072212;28;20037;-64
2021/01/20 03:50:31;;;;;;;13.40;5.90;;;;;;;;;;5072071;28;20039;-63
2021/01/20 03:52:57;;;;;;;9.27;4.90;;;;;;;;;;5071986;28;20392;-64
2021/01/20 03:55:23;;;;;;;10.95;5.50;;;;;;;;;;5072336;28;20808;-64
2021/01/20 03:57:50;;;;;;;13.65;6.57;;;;;;;;;;5062829;28;20033;-64
2021/01/20 04:00:17;;;;;;;13.43;5.38;;;;;;;;;;5067338;28;20051;-64
2021/01/20 04:02:43;;;;;;;13.18;5.63;;;;;;;;;;5071932;28;20029;-62
2021/01/20 04:05:24;;;;;;;11.45;5.55;;;;;;;;;;5087062;28;20055;-63
2021/01/20 04:07:50;;;;;;;11.07;5.18;;;;;;;;;;5072108;28;20070;-64
2021/01/20 04:10:17;;;;;;;13.20;4.82;;;;;;;;;;5072220;28;20040;-64
2021/01/20 04:12:43;;;;;;;11.50;5.10;;;;;;;;;;5071843;28;20522;-64
2021/01/20 04:15:09;;;;;;;10.80;5.53;;;11.10;61.00;;;;;;5071426;28;20087;-64
2021/01/20 04:17:36;;;;;;;9.90;4.88;;;11.10;61.20;;;;;;5071705;28;20029;-63
2021/01/20 04:20:04;;;;;;;9.88;5.07;;;11.20;60.50;;;;;;5072009;28;20028;-63
2021/01/20 04:22:30;;;;;;;12.32;5.30;;;;;;;;;;5071996;28;20032;-65
2021/01/20 04:24:56;;;;;;;8.98;4.82;;;;;;;;;;5071925;28;20504;-65
2021/01/20 04:27:23;;;;;;;10.43;5.10;;;;;;;;;;5071799;28;20028;-65
2021/01/20 04:29:49;;;;;;;10.50;5.22;;;;;;;;;;5070959;28;20048;-63
2021/01/20 04:32:15;;;;;;;10.27;5.50;;;;;;;;;;5070961;28;20024;-66
2021/01/20 04:34:42;;;;;;;8.88;4.70;;;;;;;;;;5071363;28;20037;-66
2021/01/20 04:37:08;;;;;;;12.05;5.05;;;;;;;;;;5071838;28;20480;-64
2021/01/20 04:39:34;;;;;;;9.75;5.00;;;;;;;;;;5071645;28;20055;-63
2021/01/20 04:42:00;;;;;;;15.43;5.60;;;;;;;;;;5071524;28;20040;-64
2021/01/20 04:44:27;;;;;;;14.40;4.97;;;;;;;;;;5071207;28;20024;-64
2021/01/20 04:46:53;;;;;;;10.23;4.95;;;;;;;;;;5071408;28;20048;-63
2021/01/20 04:49:20;;;;;;;12.40;5.25;;;;;;;;;;5071538;28;20036;-64
2021/01/20 04:51:49;;;;;;;8.18;4.50;;;11.40;59.50;;;;;;5071331;28;20363;-65
2021/01/20 04:54:16;;;;;;;8.85;4.45;;;11.40;59.80;;;;;;5071456;28;20041;-64
2021/01/20 04:56:43;;;;;;;11.40;4.70;;;;;;;;;;5071342;28;20043;-63
2021/01/20 04:59:09;;;;;;;12.77;5.32;;;;;;;;;;5070739;28;20482;-64
2021/01/20 05:01:36;;;;;;;9.60;4.95;;;;;;;;;;5071295;28;20094;-63
2021/01/20 05:04:03;;;;;;;10.05;5.05;;;11.70;58.80;;;;;;5071085;28;20044;-64
2021/01/20 05:06:30;;;;;;;9.65;4.72;;;;;;;;;;5071454;28;20034;-64
2021/01/20 05:08:56;;;;;;;8.98;4.72;;;;;;;;;;5071107;28;20066;-64
2021/01/20 05:11:40;;;;;;;10.65;4.90;;;11.60;58.40;;;;;;5071308;28;20422;-64
2021/01/20 05:14:14;;;;;;;11.57;5.40;;;11.50;58.20;;;;;;5070615;28;20033;-64
2021/01/20 05:16:41;;;;;;;10.43;4.90;;;11.70;58.30;;;;;;5057648;28;20120;-64
2021/01/20 05:19:08;;;;;;;9.52;4.75;;;;;;;;;;5071322;28;20480;-66
2021/01/20 05:21:34;;;;;;;6.53;4.10;;;;;;;;;;5071142;28;20028;-65
2021/01/20 05:24:22;;;;;;;11.52;4.88;;;12.00;57.50;;;;;;5071204;28;20029;-66
2021/01/20 05:26:50;;;;;;;9.93;4.40;;;11.70;57.40;;;;;;5070775;28;20052;-66
2021/01/20 05:29:16;;;;;;;7.97;4.38;;;;;;;;;;5070522;28;20036;-65
2021/01/20 05:31:43;;;;;;;8.15;4.63;;;;;;;;;;5052903;28;20107;-63
2021/01/20 05:34:28;;;;;;;9.10;4.50;;;11.70;57.40;;;;;;5071258;28;20040;-65
2021/01/20 05:37:02;;;;;;;11.27;4.53;;;11.90;56.60;;;;;;5070997;28;20112;-63
2021/01/20 05:39:28;;;;;;;8.65;4.07;;;;;;;;;;5070803;28;20045;-66
2021/01/20 05:42:05;;;;;;;7.63;3.90;;;11.80;56.10;;;;;;5070133;28;20079;-63
2021/01/20 05:44:33;;;;;;;13.35;4.45;;;;;;;;;;5073832;28;20041;-64
2021/01/20 05:47:10;;;;;;;14.10;4.40;;;11.70;56.40;;;;;;5074573;28;20044;-64
2021/01/20 05:49:37;;;;;;;7.22;3.83;;;11.80;56.20;;;;;;5074579;28;20032;-64
2021/01/20 05:52:11;;;;;;;7.40;3.78;;;11.60;56.50;;;;;;5074265;28;20021;-64
2021/01/20 05:54:38;;;;;;;9.20;3.45;;;11.60;56.50;;;;;;5074512;28;20049;-64
2021/01/20 05:57:21;;;;;;;6.22;3.90;;;11.80;56.00;;;;;;5055906;28;20040;-64
2021/01/20 05:59:48;;;;;;;6.18;3.88;;;11.70;56.30;;;;;;5074365;28;20078;-63
2021/01/20 06:02:16;;;;;;;9.20;4.03;;;11.60;56.80;;;;;;5074059;28;20530;-63
2021/01/20 06:04:43;;;;;;;9.02;4.30;;;;;;;;;;5081432;28;20032;-63
2021/01/20 06:07:15;;;;;;;6.13;3.40;;;11.60;56.70;;;;;;5082717;28;20043;-63
2021/01/20 06:09:43;;;;;;;7.60;4.20;;;11.60;57.00;;;;;;5086911;28;20169;-64
2021/01/20 06:12:11;;;;;;;8.27;3.80;;;11.70;56.60;;;;;;5074793;28;20032;-63
2021/01/20 06:14:38;;;;;;;8.38;3.70;;;11.80;56.30;;;;;;5074093;28;20070;-63
2021/01/20 06:17:19;;;;;;;5.70;3.40;;;11.70;57.00;;;;;;5073161;28;20036;-64
2021/01/20 06:19:47;;;;;;;7.57;3.85;;;11.60;56.90;;;;;;5073277;28;20057;-63
2021/01/20 06:22:18;;;;;;;5.95;3.22;;;11.70;56.70;;;;;;5073622;28;20028;-64
2021/01/20 06:24:58;;;;;;;5.88;3.65;;;11.60;57.10;;;;;;5073473;28;20480;-64
2021/01/20 06:27:39;;;;;;;8.73;4.06;;;11.80;56.70;;;;;;4619748;28;10003680;-68
2021/01/20 06:30:17;;;;;;;12.40;4.10;;;11.80;57.00;;;;;;5070658;28;20389;-63
2021/01/20 06:32:48;;;;;;;5.45;3.38;;;11.60;57.30;;;;;;5071093;28;20098;-65
2021/01/20 06:35:16;;;;;;;8.20;3.70;;;11.60;57.90;;;;;;5071112;28;20616;-63
2021/01/20 06:37:47;;;;;;;6.40;3.30;;;11.80;57.40;;;;;;5070655;28;20078;-67
2021/01/20 06:40:22;;;;;;;6.97;3.60;;;11.90;57.30;;;;;;5070448;28;20080;-66
2021/01/20 06:42:49;;;;;;;9.15;4.05;;;11.90;57.00;;;;;;5070991;28;20120;-64
2021/01/20 06:45:16;;;;;;;6.03;3.45;;;12.00;57.00;;;;;;5070897;28;20036;-64
2021/01/20 06:48:00;;;;;;;7.53;3.50;;;11.70;57.80;;;;;;5070799;28;20056;-62
2021/01/20 06:50:45;;;;;;;6.00;3.45;;;11.60;58.40;;;;;;5071265;28;20078;-65
2021/01/20 06:53:11;;;;;;;5.70;3.63;;;;;;;;;;5070248;28;20032;-65
2021/01/20 06:55:39;;;;;;;7.88;3.38;;;11.80;58.60;;;;;;5069315;28;20047;-64
2021/01/20 06:58:18;;;;;;;6.10;3.33;;;11.70;58.90;;;;;;5070493;28;20040;-62
2021/01/20 07:01:11;;;;;;;4.47;3.20;;;11.80;58.60;;;;;;5070692;28;20031;-66
2021/01/20 07:03:44;;;;;;;7.65;4.10;;;11.80;58.50;;;;;;5062147;28;20040;-67
2021/01/20 07:06:35;;;;;;;7.93;3.80;;;11.50;59.70;;;;;;5070858;28;20561;-65
2021/01/20 07:09:05;;;;;;;10.05;3.92;;;11.60;60.00;;;;;;5069211;28;20160;-64
2021/01/20 07:11:52;;;;;;;6.22;3.22;;;11.60;59.90;;;;;;5070382;28;20024;-64
2021/01/20 07:14:30;;;;;;;5.88;3.58;;;11.50;60.40;;;;;;5070202;28;20150;-64
2021/01/20 07:16:57;;;;;;;8.40;3.58;;;;;;;;;;5069721;28;20480;-64
2021/01/20 07:19:25;;;;;;;4.95;3.58;;;11.80;60.10;;;;;;5070275;28;20028;-65
2021/01/20 07:21:52;;;;;;;7.15;3.63;;;11.40;61.80;;;;;;5070074;28;20033;-64
2021/01/20 07:24:19;;;;;;;6.55;3.15;;;;;;;;;;5069887;28;20032;-64
2021/01/20 07:26:48;;;;;;;5.40;3.40;;;11.20;62.80;;;;;;5069815;28;20024;-65
2021/01/20 07:29:19;;;;;;;7.20;3.60;;;11.20;63.00;;;;;;5069149;28;20037;-66
2021/01/20 07:31:46;;;;;;;6.18;3.60;;;11.60;62.60;;;;;;5070117;28;20492;-64
2021/01/20 07:34:12;;;;;;;6.93;4.00;;;;;;;;;;5070064;28;20056;-63
2021/01/20 07:36:39;;;;;;;6.60;4.03;;;;;;;;;;5069964;28;20484;-65
2021/01/20 07:39:25;;;;;;;5.85;3.60;;;11.70;62.10;;;;;;5050312;28;20078;-65
2021/01/20 07:41:57;;;;;;;6.47;3.53;;;11.70;61.80;;;;;;5069598;28;20040;-64
2021/01/20 07:44:27;;;;;;;4.55;3.30;;;11.50;62.60;;;;;;5070015;28;20108;-64
2021/01/20 07:47:00;;;;;;;9.77;3.80;;;11.60;62.60;;;;;;5069485;28;20460;-64
2021/01/20 07:49:27;;;;;;;7.88;3.85;;;;;;;;;;5069492;28;20089;-63
2021/01/20 07:52:11;;;;;;;8.13;3.92;;;11.70;62.10;;;;;;5068710;28;20029;-65
2021/01/20 07:54:38;;;;;;;5.88;3.33;;;11.80;62.40;;;;;;5069644;28;20028;-65
2021/01/20 07:57:05;;;;;;;6.68;3.60;;;11.50;63.30;;;;;;5069251;28;20028;-65
2021/01/20 07:59:32;;;;;;;6.68;4.25;;;;;;;;;;5069378;28;20056;-66
2021/01/20 08:02:08;;;;;;;5.85;3.67;;;11.80;62.90;;;;;;5070752;28;20448;-65
2021/01/20 08:04:35;;;;;;;8.98;4.13;;;;;;;;;;5071721;28;20209;-64
2021/01/20 08:07:01;;;;;;;8.93;3.72;;;;;;;;;;5070492;28;20048;-64
2021/01/20 08:09:45;;;;;;;5.15;3.53;;;11.70;63.00;;;;;;5071414;28;20036;-64
2021/01/20 08:12:21;;;;;;;5.70;3.67;;;11.50;64.00;;;;;;5071500;28;20036;-63
2021/01/20 08:14:47;;;;;;;6.03;3.70;;;;;;;;;;5071266;28;20032;-63
2021/01/20 08:17:14;;;;;;;6.18;3.70;;;;;;;;;;5071064;28;20597;-63
2021/01/20 08:19:40;;;;;;;6.18;3.70;;;11.60;63.30;;;;;;5071536;28;20047;-63
2021/01/20 08:22:14;;;;;;;9.75;3.80;;;11.60;63.20;;;;;;5070816;28;20028;-64
2021/01/20 08:24:44;;;;;;;4.93;3.28;;;11.60;63.00;;;;;;5071020;28;20032;-64
2021/01/20 08:27:11;;;;;;;5.40;3.25;;;11.60;63.30;;;;;;5071398;28;20416;-65
2021/01/20 08:29:48;;;;;;;6.93;3.63;;;11.50;63.50;;;;;;5070771;28;20039;-65
2021/01/20 08:32:14;;;;;;;4.82;3.22;;;;;;;;;;5071373;28;20494;-65
2021/01/20 08:34:42;;;;;;;5.18;3.50;;;11.60;63.20;;;;;;5071215;28;20020;-64
2021/01/20 08:37:10;;;;;;;6.03;3.50;;;11.80;62.60;;;;;;5070221;28;20476;-66
2021/01/20 08:39:38;;;;;;;8.55;3.70;;;11.70;62.70;;;;;;5071251;28;20070;-66
2021/01/20 08:42:17;;;;;;;5.75;3.08;;;11.70;62.20;;;;;;5071050;28;20033;-64
2021/01/20 08:45:03;;;;;;;6.70;3.47;;;11.80;61.80;;;;;;5071252;28;20473;-66
2021/01/20 08:47:30;;;;;;;7.47;3.47;;;;;;;;;;5059595;28;20024;-64
2021/01/20 08:49:56;;;;;;;6.32;3.70;;;;;;;;;;5070613;28;20024;-63
2021/01/20 08:52:23;;;;;;;6.95;3.50;;;;;;;;;;5070676;28;20039;-62
2021/01/20 08:54:49;;;;;;;6.07;3.55;;;12.10;60.30;;;;;;5070723;28;20488;-63
2021/01/20 08:57:17;;;;;;;4.05;2.90;;;12.20;59.20;;;;;;5070220;28;20063;-64
2021/01/20 08:59:54;;;;;;;5.88;3.40;;;12.30;59.20;;;;;;5070487;28;20035;-65
2021/01/20 09:02:20;;;;;;;7.35;3.25;;;;;;;;;;5070885;28;20032;-65
2021/01/20 09:04:49;;;;;;;4.90;3.08;;;12.20;58.50;;;;;;5070646;28;20039;-63
2021/01/20 09:07:16;;;;;;;6.45;3.05;;;12.30;58.20;;;;;;5069780;28;20106;-65
2021/01/20 09:09:42;;;;;;;;;;;12.10;58.60;;;;;;5070826;28;20485;-63
2021/01/20 09:12:09;;;;;;;5.82;3.13;;;;;;;;;;5070714;28;19947;-67
2021/01/20 09:14:35;;;;;;;4.15;3.13;;;12.00;57.50;;;;;;5070672;28;20063;-66
2021/01/20 09:17:02;;;;;;;5.68;3.17;;;12.40;57.10;;;;;;5070650;28;20152;-68
2021/01/20 09:19:29;;;;;;;8.10;3.22;;;12.40;56.80;;;;;;5072618;28;20078;-65
2021/01/20 09:21:55;;;;;;;7.45;2.92;;;;;;;;;;5074704;28;20115;-66
2021/01/20 09:24:21;;;;;;;6.75;3.40;;;;;;;;;;5074371;28;20400;-67
2021/01/20 09:26:48;;;;;;;3.13;2.80;;;;;;;;;;5074553;28;20032;-66
2021/01/20 09:29:14;;;;;;;4.85;3.13;;;;;;;;;;5074205;28;20032;-66
2021/01/20 09:31:40;;;;;;;4.63;2.88;;;;;;;;;;5056385;28;20021;-66
2021/01/20 09:34:08;;;;;;;3.88;2.90;;;12.40;55.00;;;;;;5073695;28;20017;-67
2021/01/20 09:36:35;;;;;;;5.13;2.67;;;;;;;;;;5074264;28;20040;-67
2021/01/20 09:39:03;;;;;;;4.40;3.00;;;12.30;55.20;;;;;;5073259;28;20048;-65
2021/01/20 09:41:29;;;;;;;3.60;2.72;;;;;;;;;;5074329;28;20146;-67
2021/01/20 09:43:55;;;;;;;5.22;3.20;;;;;;;;;;5074374;28;20040;-65
2021/01/20 09:46:22;;;;;;;4.03;3.15;;;;;;;;;;5073986;28;20064;-65
2021/01/20 09:48:48;;;;;;;4.28;2.75;;;;;;;;;;5072975;28;20020;-63
2021/01/20 09:51:14;;;;;;;5.82;3.10;;;;;;;;;;5073966;28;20059;-65
2021/01/20 09:53:41;;;;;;;4.18;2.97;;;;;;;;;;5073781;28;20060;-64
2021/01/20 09:56:07;;;;;;;4.38;3.20;;;;;;;;;;5073717;28;20040;-66
2021/01/20 09:58:39;;;;;;;4.03;2.78;;;;;;;;;;5073560;28;20085;-65
2021/01/20 10:01:06;;;;;;;4.45;2.70;;;;;;;;;;5073778;28;20032;-63
2021/01/20 10:03:32;;;;;;;3.70;2.60;;;;;;;;;;5072975;28;20062;-64
2021/01/20 10:05:58;;;;;;;4.40;2.90;;;;;;;;;;5080462;28;20423;-66
2021/01/20 10:08:24;;;;;;;5.05;3.15;;;;;;;;;;5082976;28;20119;-67
2021/01/20 10:10:51;;;;;;;5.65;3.20;;;;;;;;;;5081855;28;20055;-66
2021/01/20 10:13:19;;;;;;;3.65;2.97;;;;;;;;;;5073889;28;20024;-64
2021/01/20 10:15:45;;;;;;;4.65;3.03;;;;;;;;;;5073692;28;20119;-65
2021/01/20 10:18:12;;;;;;;7.82;2.90;;;;;;;;;;5072616;28;20040;-65
2021/01/20 10:20:38;;;;;;;4.45;3.10;;;;;;;;;;5073859;28;20052;-65
2021/01/20 10:23:04;;;;;;;4.57;3.05;;;;;;;;;;5073234;28;20020;-64
2021/01/20 10:25:33;;;;;;;5.10;2.90;;;;;;;;;;5073533;28;20060;-66
2021/01/20 10:28:00;;;;;;;4.57;2.75;;;13.00;48.30;;;;;;5073188;28;20028;-65
2021/01/20 10:30:29;;;;;;;3.83;2.80;;;12.60;47.50;;;;;;5072012;28;20037;-66
2021/01/20 10:32:56;;;;;;;8.18;3.42;;;;;;;;;;5072513;28;20071;-67
2021/01/20 10:35:23;;;;;;;5.80;2.80;;;;;;;;;;5073173;28;20032;-66
2021/01/20 10:37:49;;;;;;;6.80;3.25;;;;;;;;;;5072636;28;20029;-67
2021/01/20 10:40:16;;;;;;;6.38;3.33;;;;;;;;;;5054942;28;20524;-65
2021/01/20 10:42:42;;;;;;;6.93;2.80;;;;;;;;;;5073560;28;20025;-65
2021/01/20 10:45:09;;;;;;;6.72;2.72;;;13.40;46.30;;;;;;5072994;28;20035;-67
2021/01/20 10:47:36;;;;;;;7.53;3.38;;;;;;;;;;5072610;28;20120;-68
2021/01/20 10:50:04;;;;;;;6.10;3.13;;;13.30;46.90;;;;;;5072870;28;20036;-67
2021/01/20 10:52:30;;;;;;;5.35;3.00;;;;;;;;;;5054826;28;20038;-67
2021/01/20 10:54:56;;;;;;;7.50;3.67;;;;;;;;;;5073288;28;20048;-66
2021/01/20 10:57:23;;;;;;;3.83;2.83;;;;;;;;;;5072440;28;20036;-65
2021/01/20 10:59:49;;;;;;;5.57;3.08;;;;;;;;;;5072854;28;20071;-66
2021/01/20 11:02:16;;;;;;;6.95;2.83;;;;;;;;;;5072046;28;20036;-67
2021/01/20 11:04:42;;;;;;;6.03;3.05;;;;;;;;;;5072774;28;20034;-66
2021/01/20 11:07:10;;;;;;;7.25;3.47;;;;;;;;;;5072006;28;20025;-65
2021/01/20 11:09:36;;;;;;;11.20;3.28;;;;;;;;;;5072773;28;20032;-65
2021/01/20 11:12:03;;;;;;;5.65;2.72;;;;;;;;;;5072408;28;20029;-65
2021/01/20 11:14:29;;;;;;;3.78;3.03;;;;;;;;;;5084512;28;20156;-65
2021/01/20 11:16:56;;;;;;;6.72;3.50;;;13.20;46.10;;;;;;5089747;28;20055;-66
2021/01/20 11:19:23;;;;;;;13.48;5.65;;;;;;;;;;5077031;28;20060;-65
2021/01/20 11:21:49;;;;;;;5.20;3.33;;;;;;;;;;5089072;28;20024;-65
2021/01/20 11:24:18;;;;;;;4.53;3.00;;;13.40;45.90;;;;;;5090272;28;20085;-64
2021/01/20 11:26:45;;;;;;;6.32;3.20;;;13.20;45.50;;;;;;5088163;28;20051;-63
2021/01/20 11:29:12;;;;;;;5.47;3.10;;;;;;;;;;5090012;28;20024;-64
2021/01/20 11:31:38;;;;;;;8.35;3.20;;;;;;;;;;5085307;28;20025;-65
2021/01/20 11:34:05;;;;;;;5.82;3.17;;;;;;;;;;5080090;28;20484;-65
2021/01/20 11:36:31;;;;;;;4.55;2.95;;;;;;;;;;5088275;28;20028;-64
2021/01/20 11:38:58;;;;;;;4.95;2.80;;;;;;;;;;5078142;28;20126;-64
2021/01/20 11:41:24;;;;;;;4.13;2.97;;;;;;;;;;5089494;28;20035;-63
2021/01/20 11:43:51;;;;;;;3.72;2.60;;;;;;;;;;5087791;28;20039;-64
2021/01/20 11:46:20;;;;;;;4.80;2.75;;;;;;;;;;5089733;28;20069;-63
2021/01/20 11:48:50;;;;;;;3.95;2.92;;;13.30;45.00;;;;;;5084448;28;20040;-64
2021/01/20 11:51:16;;;;;;;7.15;3.10;;;;;;;;;;5081226;28;20016;-64
2021/01/20 11:53:42;;;;;;;5.90;2.97;;;;;;;;;;5087696;28;20063;-62
2021/01/20 11:56:09;;;;;;;7.63;2.97;;;;;;;;;;4384592;28;10000935;-65
2021/01/20 11:58:35;;;;;;;5.55;2.97;;;;;;;;;;5081207;28;20098;-64
2021/01/20 12:01:01;;;;;;;8.65;3.50;;;;;;;;;;5087201;28;20074;-64
2021/01/20 12:03:28;;;;;;;3.92;2.80;;;;;;;;;;5087644;28;20036;-66
2021/01/20 12:05:54;;;;;;;8.65;3.03;;;;;;;;;;5085471;28;20030;-65
2021/01/20 12:08:26;;;;;;;11.07;2.97;;;;;;;;;;5084679;28;20047;-67
2021/01/20 12:10:52;;;;;;;6.70;3.22;;;;;;;;;;5084529;28;20724;-67
2021/01/20 12:13:21;;;;;;;4.28;2.80;;;;;;;;;;5068600;28;20103;-66
2021/01/20 12:15:50;;;;;;;6.07;3.22;;;;;;;;;;5069162;28;20028;-65
2021/01/20 12:18:16;;;;;;;5.63;2.92;;;;;;;;;;5068660;28;20036;-65
2021/01/20 12:20:43;;;;;;;8.35;2.90;;;;;;;;;;5068823;28;20028;-64
2021/01/20 12:23:09;;;;;;;5.15;3.00;;;;;;;;;;5068730;28;20484;-64
2021/01/20 12:25:35;;;;;;;4.75;3.20;;;;;;;;;;5058960;28;20090;-65
2021/01/20 12:28:02;;;;;;;4.82;3.08;;;;;;;;;;5064022;28;20032;-67
2021/01/20 12:30:29;;;;;;;4.72;2.85;;;;;;;;;;5068961;28;20162;-67
2021/01/20 12:32:55;;;;;;;6.22;3.47;;;;;;;;;;5068375;28;20029;-63
2021/01/20 12:35:22;;;;;;;7.85;3.08;;;;;;;;;;5050706;28;20115;-65
2021/01/20 12:37:48;;;;;;;7.82;3.22;;;;;;;;;;5068232;28;20029;-65
2021/01/20 12:40:14;;;;;;;4.82;3.05;;;;;;;;;;5068452;28;20053;-66
2021/01/20 12:42:41;;;;;;;4.63;2.90;;;13.40;44.30;;;;;;5068582;28;20048;-65
2021/01/20 12:45:07;;;;;;;;;;;13.50;44.80;;;;;;5068883;28;20028;-63
2021/01/20 12:47:33;;;;;;;6.13;2.90;;;;;;;;;;5068927;28;19999;-65
2021/01/20 12:50:00;;;;;;;4.68;3.08;;;;;;;;;;5068392;28;20020;-64
2021/01/20 12:52:27;;;;;;;6.30;3.28;;;;;;;;;;5068124;28;20037;-66
2021/01/20 12:54:53;;;;;;;6.70;3.17;;;;;;;;;;5068334;28;20029;-64
2021/01/20 12:57:20;;;;;;;6.45;2.90;;;;;;;;;;5067070;28;20071;-63
2021/01/20 12:59:46;;;;;;;4.95;2.55;;;;;;;;;;5068609;28;20511;-66
2021/01/20 13:02:12;;;;;;;5.00;2.53;;;;;;;;;;5068523;28;20056;-66
2021/01/20 13:04:38;;;;;;;7.50;2.95;;;;;;;;;;5068356;28;20060;-65
2021/01/20 13:07:05;;;;;;;4.47;3.08;;;;;;;;;;5067438;28;20119;-64
2021/01/20 13:09:31;;;;;;;10.23;3.30;;;;;;;;;;5049511;28;20052;-64
2021/01/20 13:11:57;;;;;;;6.15;2.85;;;14.10;42.40;;;;;;5049582;28;20086;-65
2021/01/20 13:14:24;;;;;;;5.50;3.10;;;;;;;;;;5068572;28;20032;-65
2021/01/20 13:16:50;;;;;;;3.05;2.42;;;;;;;;;;5068358;28;20131;-65
2021/01/20 13:19:16;;;;;;;6.05;2.92;;;;;;;;;;5068542;28;20029;-66
2021/01/20 13:21:43;;;;;;;8.55;3.20;;;;;;;;;;5056031;28;20052;-65
2021/01/20 13:24:09;;;;;;;7.47;3.58;;;;;;;;;;5070506;28;20124;-65
2021/01/20 13:26:35;;;;;;;5.72;3.28;;;;;;;;;;5069696;28;20036;-66
2021/01/20 13:29:01;;;;;;;8.25;4.30;;;;;;;;;;5069901;28;20036;-65
2021/01/20 13:31:28;;;;;;;6.60;3.00;;;;;;;;;;5070446;28;20220;-63
2021/01/20 13:33:54;;;;;;;8.30;3.20;;;;;;;;;;5070288;28;20037;-64
2021/01/20 13:36:21;;;;;;;6.75;3.17;;;;;;;;;;5069748;28;20468;-66
2021/01/20 13:38:47;;;;;;;6.82;2.95;;;14.10;42.80;;;;;;5069410;28;20148;-64
2021/01/20 13:41:13;;;;;;;5.80;2.90;;;;;;;;;;5070154;28;20103;-65
2021/01/20 13:43:40;;;;;;;6.45;2.90;;;;;;;;;;5070122;28;20036;-64
2021/01/20 13:46:06;;;;;;;8.77;3.38;;;;;;;;;;5070499;28;20040;-65
2021/01/20 13:48:32;;;;;;;8.02;3.13;;;;;;;;;;5069959;28;20396;-66
2021/01/20 13:50:58;;;;;;;7.85;3.72;;;;;;;;;;5070326;28;20457;-65
2021/01/20 13:53:25;;;;;;;9.60;3.88;;;;;;;;;;5069963;28;20068;-64
2021/01/20 13:55:51;;;;;;;4.07;2.70;;;;;;;;;;5051433;28;20106;-64
2021/01/20 13:58:17;;;;;;;6.90;3.20;;;;;;;;;;5069668;28;20118;-63
2021/01/20 14:00:44;;;;;;;13.02;3.38;;;;;;;;;;5070272;28;20517;-67
2021/01/20 14:03:10;;;;;;;9.43;3.75;;;14.70;42.30;;;;;;5070215;28;20033;-65
2021/01/20 14:05:36;;;;;;;6.65;3.17;;;;;;;;;;5072534;28;20025;-65
2021/01/20 14:08:02;;;;;;;6.32;3.22;;;;;;;;;;5072538;28;20354;-66